Ely, MN

10:24 AM CDT on June 26, 2017 (GMT -0500)
Ely Municipal

Weather History for KELO - November, 2010

Change the Weather History Date:

Sunday, November 14, 2010

  Actual Average Record
Temperature  
Mean Temperature 29 °F -  
Max Temperature 30 °F 34 °F 57 °F (2001)
Min Temperature 28 °F 21 °F -7 °F (1996)
Degree Days  
Heating Degree Days 36    
Moisture  
Dew Point 27 °F    
Average Humidity 93    
Maximum Humidity 100    
Minimum Humidity 86    
Precipitation  
Precipitation 0.01 in - - ()
Sea Level Pressure  
Sea Level Pressure 29.63 in    
Wind  
Wind Speed 7 mph (NW)    
Max Wind Speed 10 mph    
Max Gust Speed -    
Visibility 6 miles    
Events Snow    
Averages and records for this station are not official NWS values.
T = Trace of Precipitation, MM = Missing Value Source: NWS Daily Summary

Daily Weather History Graph

Daily Weather History Graph

Search for Another Location

Airport or City:

Trip Planner

Search our weather history database for the weather conditions in past years. The results will help you decide how hot, cold, wet, or windy it might be!

Date:

Astronomy

Nov. 14, 2010 Rise Set
Actual Time 7:11 AM CST 4:31 PM CST
Civil Twilight 6:37 AM CST 5:04 PM CST
Nautical Twilight 6:00 AM CST 5:42 PM CST
Astronomical Twilight 5:24 AM CST 6:18 PM CST
Moon 1:16 PM CST (11/14) No Moon Set
Length of Visible Light 10h 27m
Length of Day
9h 19m
First Quarter, 60% of the Moon is Illuminated
Nov 14
First Quarter
Nov 21
Full
Nov 28
Last Quarter
Dec 5
New
Dec 13
First Quarter

Hourly Weather History & Observations

Time (CST) Temp. Windchill Dew Point Humidity Pressure Visibility Wind Dir Wind Speed Gust Speed Precip Events Conditions
12:13 AM 30.2 °F 22.6 °F 28.4 °F 93% 29.76 in 3.0 mi North 8.1 mph - N/A Snow Light Snow
12:33 AM 28.4 °F 21.2 °F 28.4 °F 100% 29.75 in 2.5 mi North 6.9 mph - N/A Snow Light Snow
12:53 AM 28.4 °F 23.3 °F 28.4 °F 100% 29.74 in 2.0 mi North 4.6 mph - N/A Snow Light Snow
1:13 AM 28.4 °F 22.2 °F 28.4 °F 100% 29.73 in 3.0 mi North 5.8 mph - N/A Snow Light Snow
1:33 AM 28.4 °F 22.2 °F 26.6 °F 93% 29.72 in 10.0 mi North 5.8 mph - N/A Snow Light Snow
1:53 AM 28.4 °F 19.7 °F 26.6 °F 93% 29.71 in 10.0 mi North 9.2 mph - N/A   Overcast
2:13 AM 28.4 °F 22.2 °F 26.6 °F 93% 29.71 in 7.0 mi North 5.8 mph - N/A Snow Light Snow
2:33 AM 28.4 °F 21.2 °F 26.6 °F 93% 29.70 in 5.0 mi North 6.9 mph - N/A Snow Light Snow
2:53 AM 28.4 °F 23.3 °F 26.6 °F 93% 29.70 in 10.0 mi North 4.6 mph - N/A Snow Light Snow
3:13 AM 28.4 °F 24.6 °F 26.6 °F 93% 29.69 in 10.0 mi North 3.5 mph - N/A   Overcast
3:33 AM 28.4 °F 22.2 °F 26.6 °F 93% 29.68 in 7.0 mi NNW 5.8 mph - N/A Snow Light Snow
3:53 AM 28.4 °F 22.2 °F 26.6 °F 93% 29.68 in 5.0 mi North 5.8 mph - N/A Snow Light Snow
4:13 AM 28.4 °F 23.3 °F 26.6 °F 93% 29.67 in 4.0 mi NNW 4.6 mph - N/A Snow Light Snow
4:33 AM 28.4 °F 22.2 °F 26.6 °F 93% 29.67 in 4.0 mi NNW 5.8 mph - N/A Snow Light Snow
4:53 AM 28.4 °F 23.3 °F 26.6 °F 93% 29.66 in 4.0 mi NNW 4.6 mph - N/A Snow Light Snow
5:13 AM 28.4 °F 22.2 °F 26.6 °F 93% 29.66 in 5.0 mi NNW 5.8 mph - N/A Snow Light Snow
5:33 AM 28.4 °F 21.2 °F 26.6 °F 93% 29.65 in 7.0 mi NNW 6.9 mph - N/A Snow Light Snow
5:53 AM 28.4 °F 20.4 °F 26.6 °F 93% 29.65 in 5.0 mi NNW 8.1 mph - N/A Snow Light Snow
6:13 AM 28.4 °F 20.4 °F 26.6 °F 93% 29.65 in 5.0 mi NNW 8.1 mph - N/A Snow Light Snow
6:33 AM 28.4 °F 20.4 °F 26.6 °F 93% 29.65 in 4.0 mi NNW 8.1 mph - N/A Snow Light Snow
6:53 AM 28.4 °F 22.2 °F 26.6 °F 93% 29.64 in 5.0 mi NNW 5.8 mph - N/A Snow Light Snow
7:13 AM 28.4 °F 19.7 °F 26.6 °F 93% 29.63 in 4.0 mi NNW 9.2 mph - N/A Snow Light Snow
7:33 AM 28.4 °F 21.2 °F 26.6 °F 93% 29.64 in 3.0 mi NNW 6.9 mph - N/A Snow Light Snow
7:53 AM 28.4 °F 21.2 °F 26.6 °F 93% 29.63 in 7.0 mi NNW 6.9 mph - N/A Snow Light Snow
8:13 AM 28.4 °F 21.2 °F 26.6 °F 93% 29.63 in 4.0 mi NW 6.9 mph - N/A Snow Light Snow
8:33 AM 28.4 °F 21.2 °F 26.6 °F 93% 29.63 in 10.0 mi NNW 6.9 mph - N/A   Overcast
8:53 AM 28.4 °F 21.2 °F 26.6 °F 93% 29.62 in 5.0 mi NW 6.9 mph - N/A Snow Light Snow
9:13 AM 28.4 °F 22.2 °F 26.6 °F 93% 29.62 in 7.0 mi NW 5.8 mph - N/A   Overcast
9:33 AM 28.4 °F 22.2 °F 26.6 °F 93% 29.62 in 7.0 mi NNW 5.8 mph - N/A   Overcast
9:53 AM 28.4 °F 22.2 °F 26.6 °F 93% 29.62 in 10.0 mi NW 5.8 mph - N/A   Overcast
10:13 AM 28.4 °F 21.2 °F 26.6 °F 93% 29.61 in 4.0 mi WNW 6.9 mph - N/A Snow Light Snow
10:33 AM 28.4 °F 20.4 °F 26.6 °F 93% 29.61 in 10.0 mi NW 8.1 mph - N/A   Overcast
10:53 AM 28.4 °F 21.2 °F 26.6 °F 93% 29.60 in 10.0 mi WNW 6.9 mph - N/A   Overcast
11:13 AM 28.4 °F 20.4 °F 26.6 °F 93% 29.60 in 10.0 mi NW 8.1 mph - N/A   Overcast
11:33 AM 28.4 °F 20.4 °F 26.6 °F 93% 29.60 in 10.0 mi NW 8.1 mph - N/A   Overcast
11:53 AM 28.4 °F 20.4 °F 26.6 °F 93% 29.59 in 10.0 mi NW 8.1 mph - N/A   Overcast
12:13 PM 28.4 °F 19.7 °F 26.6 °F 93% 29.58 in 7.0 mi NW 9.2 mph - N/A Snow Light Snow
12:33 PM 28.4 °F 19.1 °F 26.6 °F 93% 29.58 in 5.0 mi NW 10.4 mph - N/A Snow Light Snow
12:53 PM 28.4 °F 21.2 °F 26.6 °F 93% 29.58 in 2.0 mi WNW 6.9 mph - N/A Snow Light Snow
1:13 PM 28.4 °F 20.4 °F 26.6 °F 93% 29.58 in 3.0 mi NW 8.1 mph - N/A Snow Light Snow
1:33 PM 28.4 °F 19.7 °F 26.6 °F 93% 29.57 in 7.0 mi NW 9.2 mph - N/A Snow Light Snow
1:53 PM 30.2 °F 24.3 °F 26.6 °F 86% 29.57 in 7.0 mi NW 5.8 mph - N/A Snow Light Snow
2:13 PM 28.4 °F 20.4 °F 26.6 °F 93% 29.57 in 3.0 mi WNW 8.1 mph - N/A Snow Light Snow
2:33 PM 30.2 °F 23.4 °F 26.6 °F 86% 29.57 in 5.0 mi NW 6.9 mph - N/A Snow Light Snow
2:53 PM 30.2 °F 22.6 °F 26.6 °F 86% 29.57 in 5.0 mi NW 8.1 mph - N/A Snow Light Snow
3:13 PM 28.4 °F 23.3 °F 26.6 °F 93% 29.57 in 3.0 mi NW 4.6 mph - N/A Snow Light Snow
3:33 PM 28.4 °F 24.6 °F 28.4 °F 100% 29.57 in 3.0 mi West 3.5 mph - N/A Snow Light Snow
3:53 PM 28.4 °F 24.6 °F 28.4 °F 100% 29.57 in 3.0 mi West 3.5 mph - N/A Snow Light Snow
4:14 PM 30.2 °F - 28.4 °F 93% 29.57 in 1.5 mi Calm Calm - N/A Snow Light Snow
4:33 PM 30.2 °F 26.7 °F 28.4 °F 93% 29.57 in 3.0 mi West 3.5 mph - N/A Snow Light Snow
4:55 PM 30.2 °F 25.4 °F 28.4 °F 93% 29.58 in 5.0 mi WNW 4.6 mph - 0.01 in Snow Light Snow
5:13 PM 30.2 °F 24.3 °F 28.4 °F 93% 29.58 in 2.5 mi West 5.8 mph - N/A Snow Light Snow
5:33 PM 30.2 °F 23.4 °F 28.4 °F 93% 29.58 in 4.0 mi WNW 6.9 mph - N/A Snow Light Snow
5:53 PM 30.2 °F 24.3 °F 28.4 °F 93% 29.58 in 5.0 mi WNW 5.8 mph - N/A Snow Light Snow
6:13 PM 30.2 °F 24.3 °F 28.4 °F 93% 29.58 in 5.0 mi West 5.8 mph - N/A Snow Light Snow
6:33 PM 28.4 °F - 28.4 °F 100% 29.58 in 10.0 mi Calm Calm - N/A   Overcast
6:53 PM 28.4 °F 24.6 °F 28.4 °F 100% 29.58 in 5.0 mi West 3.5 mph - N/A Snow Light Snow
7:13 PM 30.2 °F - 28.4 °F 93% 29.59 in 3.0 mi Calm Calm - N/A Snow Light Snow
7:33 PM 30.2 °F 25.4 °F 28.4 °F 93% 29.58 in 1.8 mi West 4.6 mph - 0.01 in Snow Light Snow
7:55 PM 30.2 °F 24.3 °F 28.4 °F 93% 29.58 in 1.8 mi West 5.8 mph - 0.01 in Snow Light Snow
8:13 PM 30.2 °F 25.4 °F 28.4 °F 93% 29.59 in 2.0 mi West 4.6 mph - 0.01 in Snow Light Snow
8:33 PM 30.2 °F 24.3 °F 28.4 °F 93% 29.59 in 2.5 mi West 5.8 mph - 0.01 in Snow Light Snow
8:55 PM 30.2 °F 24.3 °F 28.4 °F 93% 29.59 in 4.0 mi West 5.8 mph - 0.01 in Snow Light Snow
9:13 PM 30.2 °F 24.3 °F 28.4 °F 93% 29.59 in 4.0 mi West 5.8 mph - N/A Snow Light Snow
9:33 PM 30.2 °F 25.4 °F 28.4 °F 93% 29.59 in 5.0 mi West 4.6 mph - N/A Snow Light Snow
9:53 PM 30.2 °F 23.4 °F 28.4 °F 93% 29.59 in 5.0 mi West 6.9 mph - N/A Snow Light Snow
10:13 PM 30.2 °F 24.3 °F 28.4 °F 93% 29.59 in 10.0 mi West 5.8 mph - N/A   Overcast
10:33 PM 30.2 °F 23.4 °F 28.4 °F 93% 29.59 in 10.0 mi West 6.9 mph - N/A   Overcast
10:53 PM 30.2 °F 23.4 °F 28.4 °F 93% 29.59 in 10.0 mi West 6.9 mph - N/A   Overcast
11:13 PM 28.4 °F 24.6 °F 28.4 °F 100% 29.59 in 10.0 mi WSW 3.5 mph - N/A   Overcast
11:33 PM 28.4 °F 22.2 °F 28.4 °F 100% 29.60 in 7.0 mi West 5.8 mph - N/A Snow Light Snow
11:53 PM 28.4 °F 22.2 °F 26.6 °F 93% 29.60 in 2.0 mi West 5.8 mph - N/A Snow Light Snow